createdAt,value
2018-12-15T00:01:29.647Z,19.40
2018-12-15T00:07:36.395Z,19.40
2018-12-15T00:10:16.623Z,19.20
2018-12-15T00:13:00.831Z,19.20
2018-12-15T00:15:39.420Z,19.10
2018-12-15T00:18:15.965Z,19.10
2018-12-15T00:20:58.375Z,19.10
2018-12-15T00:23:34.188Z,19.00
2018-12-15T00:26:07.466Z,19.00
2018-12-15T00:28:40.929Z,19.10
2018-12-15T00:31:19.154Z,19.00
2018-12-15T00:33:52.609Z,19.10
2018-12-15T00:36:25.274Z,19.10
2018-12-15T00:38:58.142Z,19.10
2018-12-15T00:41:31.608Z,19.00
2018-12-15T00:44:06.087Z,19.00
2018-12-15T00:46:38.784Z,19.10
2018-12-15T00:49:12.082Z,19.20
2018-12-15T00:51:48.594Z,19.20
2018-12-15T00:57:54.974Z,19.20
2018-12-15T01:00:41.592Z,19.40
2018-12-15T01:03:15.790Z,19.50
2018-12-15T01:05:49.230Z,19.50
2018-12-15T01:08:22.887Z,19.50
2018-12-15T01:10:55.474Z,19.50
2018-12-15T01:13:31.478Z,19.50
2018-12-15T01:16:04.708Z,19.40
2018-12-15T01:18:38.208Z,19.40
2018-12-15T01:21:10.672Z,19.40
2018-12-15T01:23:44.747Z,19.50
2018-12-15T01:26:17.624Z,19.40
2018-12-15T01:32:12.903Z,19.40
2018-12-15T01:34:47.566Z,19.40
2018-12-15T01:37:26.810Z,19.30
2018-12-15T01:43:21.828Z,19.30
2018-12-15T01:45:54.943Z,19.30
2018-12-15T01:48:27.590Z,19.30
2018-12-15T01:51:00.896Z,19.20
2018-12-15T01:53:35.842Z,19.20
2018-12-15T01:56:12.562Z,19.10
2018-12-15T01:58:45.488Z,19.10
2018-12-15T02:01:18.489Z,19.00
2018-12-15T02:03:52.191Z,18.90
2018-12-15T02:06:43.271Z,18.80
2018-12-15T02:09:30.341Z,18.70
2018-12-15T02:12:03.138Z,18.70
2018-12-15T02:14:38.196Z,18.60
2018-12-15T02:17:10.849Z,18.60
2018-12-15T02:19:45.007Z,18.50
2018-12-15T02:22:18.256Z,18.50
2018-12-15T02:25:09.200Z,18.40
2018-12-15T02:27:43.980Z,18.30
2018-12-15T02:30:20.492Z,18.30
2018-12-15T02:32:53.294Z,18.30
2018-12-15T02:39:42.070Z,18.10
2018-12-15T02:45:48.690Z,17.90
2018-12-15T02:51:06.993Z,17.90
2018-12-15T02:53:45.244Z,17.80
2018-12-15T02:59:41.197Z,17.90
2018-12-15T03:02:16.990Z,17.90
2018-12-15T03:04:57.533Z,17.80
2018-12-15T03:07:35.253Z,17.80
2018-12-15T03:13:29.007Z,17.70
2018-12-15T03:16:03.360Z,17.80
2018-12-15T03:18:38.293Z,17.80
2018-12-15T03:21:15.400Z,17.80
2018-12-15T03:23:49.579Z,17.90
2018-12-15T03:26:24.111Z,17.60
2018-12-15T03:28:58.043Z,17.50
2018-12-15T03:31:34.479Z,17.30
2018-12-15T03:34:07.270Z,17.30
2018-12-15T03:36:45.011Z,17.30
2018-12-15T03:39:17.829Z,17.20
2018-12-15T03:41:51.358Z,17.30
2018-12-15T03:44:23.969Z,17.20
2018-12-15T03:46:56.986Z,17.20
2018-12-15T03:49:29.567Z,17.20
2018-12-15T03:52:02.751Z,17.20
2018-12-15T03:54:35.391Z,17.20
2018-12-15T03:57:08.262Z,17.20
2018-12-15T03:59:40.908Z,17.20
2018-12-15T04:02:14.213Z,17.10
2018-12-15T04:05:16.896Z,17.10
2018-12-15T04:07:49.984Z,17.00
2018-12-15T04:10:23.610Z,17.00
2018-12-15T04:12:57.020Z,17.00
2018-12-15T04:15:31.054Z,16.90
2018-12-15T04:21:36.210Z,16.80
2018-12-15T04:24:09.334Z,16.70
2018-12-15T04:26:42.707Z,16.70
2018-12-15T04:29:15.803Z,16.70
2018-12-15T04:31:49.918Z,16.70
2018-12-15T04:34:23.147Z,16.60
2018-12-15T04:36:56.239Z,16.60
2018-12-15T04:39:29.227Z,16.60
2018-12-15T04:42:02.907Z,16.60
2018-12-15T04:47:57.423Z,16.50
2018-12-15T04:50:30.240Z,16.50
2018-12-15T04:53:03.218Z,16.50
2018-12-15T04:55:36.183Z,16.40
2018-12-15T04:58:09.778Z,16.40
2018-12-15T05:00:42.528Z,16.40
2018-12-15T05:03:15.269Z,16.40
2018-12-15T05:05:48.070Z,16.30
2018-12-15T05:08:20.867Z,16.30
2018-12-15T05:11:07.555Z,16.20
2018-12-15T05:13:40.650Z,16.20
2018-12-15T05:16:13.513Z,16.20
2018-12-15T05:18:46.339Z,16.20
2018-12-15T05:21:19.453Z,16.20
2018-12-15T05:23:52.427Z,16.20
2018-12-15T05:26:26.143Z,16.10
2018-12-15T05:28:59.095Z,16.20
2018-12-15T05:31:31.857Z,16.10
2018-12-15T05:34:04.725Z,16.20
2018-12-15T05:36:37.754Z,16.20
2018-12-15T05:39:11.165Z,16.10
2018-12-15T05:41:43.963Z,16.00
2018-12-15T05:44:16.756Z,15.90
2018-12-15T05:46:49.529Z,15.90
2018-12-15T05:49:22.598Z,15.80
2018-12-15T05:51:55.435Z,15.80
2018-12-15T05:54:28.250Z,15.90
2018-12-15T05:57:01.080Z,16.00
2018-12-15T05:59:33.932Z,16.10
2018-12-15T06:02:09.003Z,16.20
2018-12-15T06:04:42.073Z,16.20
2018-12-15T06:07:14.961Z,16.20
2018-12-15T06:09:47.767Z,16.20
2018-12-15T06:12:20.582Z,16.20
2018-12-15T06:14:53.364Z,16.20
2018-12-15T06:17:26.149Z,16.10
2018-12-15T06:19:59.739Z,16.10
2018-12-15T06:22:32.547Z,16.10
2018-12-15T06:25:05.504Z,16.00
2018-12-15T06:27:38.343Z,16.00
2018-12-15T06:30:11.446Z,16.00
2018-12-15T06:32:44.571Z,16.00
2018-12-15T06:35:17.334Z,15.90
2018-12-15T06:37:50.193Z,15.90
2018-12-15T06:40:22.987Z,15.80
2018-12-15T06:46:23.976Z,15.80
2018-12-15T06:48:56.629Z,15.80
2018-12-15T06:51:29.745Z,15.80
2018-12-15T06:54:02.423Z,15.90
2018-12-15T06:56:35.096Z,16.00
2018-12-15T06:59:07.808Z,16.00
2018-12-15T07:01:40.422Z,16.10
2018-12-15T07:04:13.104Z,16.10
2018-12-15T07:06:45.792Z,16.10
2018-12-15T07:09:18.514Z,16.20
2018-12-15T07:11:51.165Z,16.20
2018-12-15T07:14:24.121Z,16.20
2018-12-15T07:16:56.948Z,16.20
2018-12-15T07:19:29.761Z,16.20
2018-12-15T07:22:02.364Z,16.20
2018-12-15T07:24:35.031Z,16.20
2018-12-15T07:27:07.755Z,16.20
2018-12-15T07:29:40.440Z,16.20
2018-12-15T07:32:13.185Z,16.10
2018-12-15T07:34:45.907Z,16.20
2018-12-15T07:37:18.661Z,16.30
2018-12-15T07:39:51.379Z,16.30
2018-12-15T07:42:24.097Z,16.30
2018-12-15T07:45:02.794Z,16.30
2018-12-15T07:47:35.580Z,16.30
2018-12-15T07:50:08.625Z,16.30
2018-12-15T07:52:41.817Z,16.30
2018-12-15T07:55:14.620Z,16.30
2018-12-15T07:57:47.292Z,16.20
2018-12-15T08:00:20.885Z,16.20
2018-12-15T08:02:53.591Z,16.10
2018-12-15T08:05:26.377Z,16.10
2018-12-15T08:11:34.589Z,15.90
2018-12-15T08:14:10.264Z,15.90
2018-12-15T08:16:42.793Z,15.90
2018-12-15T08:19:15.214Z,15.90
2018-12-15T08:21:47.606Z,15.90
2018-12-15T08:24:20.056Z,15.90
2018-12-15T08:26:52.438Z,15.80
2018-12-15T08:29:24.880Z,15.80
2018-12-15T08:31:57.255Z,15.80
2018-12-15T08:34:29.632Z,15.80
2018-12-15T08:37:37.974Z,15.80
2018-12-15T08:40:10.346Z,15.80
2018-12-15T08:42:42.696Z,15.80
2018-12-15T08:45:15.019Z,15.90
2018-12-15T08:47:47.349Z,15.90
2018-12-15T08:50:19.622Z,15.90
2018-12-15T08:52:52.153Z,15.80
2018-12-15T08:55:24.419Z,15.80
2018-12-15T08:57:56.699Z,15.80
2018-12-15T09:03:50.442Z,15.90
2018-12-15T09:09:43.992Z,16.00
2018-12-15T09:12:16.854Z,16.00
2018-12-15T09:14:49.912Z,16.00
2018-12-15T09:17:22.741Z,16.00
2018-12-15T09:19:56.190Z,16.00
2018-12-15T09:22:29.021Z,16.00
2018-12-15T09:25:01.820Z,16.00
2018-12-15T09:27:34.736Z,15.90
2018-12-15T09:30:08.339Z,15.90
2018-12-15T09:32:41.111Z,15.90
2018-12-15T09:35:13.924Z,15.90
2018-12-15T09:37:46.742Z,15.80
2018-12-15T09:40:19.763Z,15.80
2018-12-15T09:42:52.723Z,15.70
2018-12-15T09:45:25.534Z,15.70
2018-12-15T09:47:58.302Z,15.70
2018-12-15T09:50:31.049Z,15.70
2018-12-15T09:53:04.352Z,15.60
2018-12-15T09:55:37.223Z,15.60
2018-12-15T09:58:10.064Z,15.60
2018-12-15T10:00:42.860Z,15.60
2018-12-15T10:03:15.698Z,15.60
2018-12-15T10:05:48.767Z,15.50
2018-12-15T10:08:21.649Z,15.50
2018-12-15T10:10:54.442Z,15.50
2018-12-15T10:13:27.151Z,15.40
2018-12-15T10:15:59.975Z,15.30
2018-12-15T10:18:32.835Z,15.30
2018-12-15T10:21:05.707Z,15.30
2018-12-15T10:23:38.440Z,15.30
2018-12-15T10:26:11.212Z,15.20
2018-12-15T10:28:43.963Z,15.20
2018-12-15T10:31:21.212Z,15.10
2018-12-15T10:33:53.954Z,15.10
2018-12-15T10:36:26.724Z,15.00
2018-12-15T10:39:00.096Z,15.00
2018-12-15T10:41:32.946Z,15.00
2018-12-15T10:44:05.694Z,14.90
2018-12-15T10:46:38.469Z,14.90
2018-12-15T10:49:11.355Z,14.90
2018-12-15T10:51:44.160Z,14.90
2018-12-15T10:54:17.908Z,14.90
2018-12-15T10:56:50.765Z,14.90
2018-12-15T10:59:23.462Z,14.90
2018-12-15T11:02:36.787Z,14.90
2018-12-15T11:05:09.426Z,14.90
2018-12-15T11:07:42.033Z,14.90
2018-12-15T11:10:14.606Z,14.90
2018-12-15T11:12:47.171Z,14.80
2018-12-15T11:15:57.435Z,14.80
2018-12-15T11:18:30.522Z,14.80
2018-12-15T11:21:03.294Z,14.90
2018-12-15T11:23:36.011Z,14.90
2018-12-15T11:26:08.960Z,14.80
2018-12-15T11:28:41.705Z,14.80
2018-12-15T11:31:14.430Z,14.80
2018-12-15T11:33:47.215Z,14.80
2018-12-15T11:39:48.230Z,14.70
2018-12-15T11:42:20.653Z,14.70
2018-12-15T11:44:53.367Z,14.70
2018-12-15T11:47:27.113Z,14.70
2018-12-15T11:49:59.407Z,14.70
2018-12-15T11:52:35.836Z,14.60
2018-12-15T11:55:08.703Z,14.60
2018-12-15T11:57:41.788Z,14.50
2018-12-15T12:00:17.251Z,14.50
2018-12-15T12:02:51.046Z,14.50
2018-12-15T12:05:23.680Z,14.50
2018-12-15T12:07:56.049Z,14.50
2018-12-15T12:10:28.353Z,14.50
2018-12-15T12:13:00.625Z,14.50
2018-12-15T12:15:32.902Z,14.50
2018-12-15T12:18:05.202Z,14.50
2018-12-15T12:20:37.723Z,14.50
2018-12-15T12:23:10.001Z,14.60
2018-12-15T12:25:42.323Z,14.60
2018-12-15T12:28:14.645Z,14.60
2018-12-15T12:30:46.968Z,14.60
2018-12-15T12:33:19.469Z,14.60
2018-12-15T12:35:51.894Z,14.50
2018-12-15T12:38:25.014Z,14.50
2018-12-15T12:40:58.854Z,14.50
2018-12-15T12:43:31.835Z,14.50
2018-12-15T12:46:05.777Z,14.50
2018-12-15T12:48:39.697Z,14.50
2018-12-15T12:51:12.030Z,14.70
2018-12-15T12:53:44.353Z,14.70
2018-12-15T12:56:18.045Z,14.80
2018-12-15T12:58:52.759Z,15.10
2018-12-15T13:01:25.432Z,15.40
2018-12-15T13:03:59.327Z,15.50
2018-12-15T13:06:32.408Z,15.70
2018-12-15T13:09:04.821Z,15.50
2018-12-15T13:11:38.702Z,15.40
2018-12-15T13:14:43.847Z,15.90
2018-12-15T13:17:16.522Z,16.10
2018-12-15T13:19:49.169Z,16.50
2018-12-15T13:22:22.495Z,16.90
2018-12-15T13:24:55.165Z,17.00
2018-12-15T13:27:27.918Z,17.10
2018-12-15T13:30:00.694Z,17.10
2018-12-15T13:32:40.804Z,17.20
2018-12-15T13:35:16.073Z,17.50
2018-12-15T13:37:48.770Z,18.00
2018-12-15T13:40:21.574Z,17.70
2018-12-15T13:42:54.431Z,17.30
2018-12-15T13:45:27.462Z,16.60
2018-12-15T13:48:00.690Z,16.10
2018-12-15T13:51:01.205Z,15.80
2018-12-15T13:53:33.486Z,15.70
2018-12-15T13:56:06.388Z,15.60
2018-12-15T13:58:39.297Z,15.70
2018-12-15T14:01:11.557Z,16.20
2018-12-15T14:04:20.039Z,16.60
2018-12-15T14:06:53.610Z,17.40
2018-12-15T14:09:26.129Z,17.70
2018-12-15T14:11:58.843Z,17.80
2018-12-15T14:14:31.480Z,18.80
2018-12-15T14:17:04.285Z,18.80
2018-12-15T14:19:36.843Z,18.60
2018-12-15T14:22:09.458Z,18.70
2018-12-15T14:24:42.938Z,18.70
2018-12-15T14:27:15.486Z,18.90
2018-12-15T14:29:50.162Z,19.00
2018-12-15T14:32:22.935Z,18.90
2018-12-15T14:34:55.646Z,19.00
2018-12-15T14:37:28.491Z,19.20
2018-12-15T14:40:01.178Z,19.60
2018-12-15T14:42:33.795Z,19.40
2018-12-15T14:45:06.403Z,19.50
2018-12-15T14:47:39.076Z,19.30
2018-12-15T14:50:11.684Z,19.50
2018-12-15T14:52:45.372Z,19.80
2018-12-15T14:55:18.034Z,20.40
2018-12-15T14:57:50.633Z,20.80
2018-12-15T15:00:24.109Z,20.70
2018-12-15T15:02:56.736Z,20.40
2018-12-15T15:05:29.597Z,20.30
2018-12-15T15:08:02.715Z,20.20
2018-12-15T15:10:35.348Z,19.50
2018-12-15T15:13:07.971Z,19.20
2018-12-15T15:15:40.598Z,19.10
2018-12-15T15:18:13.252Z,19.20
2018-12-15T15:20:47.011Z,19.10
2018-12-15T15:23:19.616Z,20.00
2018-12-15T15:25:52.279Z,19.50
2018-12-15T15:28:30.861Z,19.10
2018-12-15T15:31:39.496Z,19.20
2018-12-15T15:34:18.119Z,19.20
2018-12-15T15:36:50.496Z,19.20
2018-12-15T15:39:24.433Z,19.10
2018-12-15T15:41:57.615Z,19.60
2018-12-15T15:44:30.312Z,19.40
2018-12-15T15:47:03.003Z,19.70
2018-12-15T15:49:35.377Z,19.80
2018-12-15T15:52:07.832Z,19.80
2018-12-15T15:54:40.454Z,19.60
2018-12-15T15:57:13.207Z,19.60
2018-12-15T15:59:45.706Z,20.30
2018-12-15T16:02:18.159Z,20.40
2018-12-15T16:04:50.603Z,20.40
2018-12-15T16:07:23.885Z,20.60
2018-12-15T16:09:56.334Z,20.30
2018-12-15T16:12:28.792Z,21.10
2018-12-15T16:15:01.293Z,20.60
2018-12-15T16:17:33.734Z,20.10
2018-12-15T16:20:06.286Z,20.00
2018-12-15T16:22:39.442Z,20.00
2018-12-15T16:25:12.555Z,19.80
2018-12-15T16:27:50.374Z,20.00
2018-12-15T16:30:22.758Z,20.40
2018-12-15T16:32:55.357Z,20.40
2018-12-15T16:35:28.406Z,20.10
2018-12-15T16:38:01.792Z,20.60
2018-12-15T16:40:37.261Z,21.00
2018-12-15T16:43:17.903Z,21.30
2018-12-15T16:45:52.202Z,21.00
2018-12-15T16:48:26.835Z,20.60
2018-12-15T16:50:59.204Z,20.70
2018-12-15T16:53:31.888Z,20.80
2018-12-15T16:56:04.658Z,21.30
2018-12-15T16:58:37.189Z,21.50
2018-12-15T17:01:10.447Z,21.30
2018-12-15T17:03:42.815Z,20.50
2018-12-15T17:08:57.190Z,21.30
2018-12-15T17:11:30.595Z,22.00
2018-12-15T17:14:03.066Z,21.90
2018-12-15T17:16:38.322Z,21.90
2018-12-15T17:19:11.256Z,21.80
2018-12-15T17:25:15.426Z,22.10
2018-12-15T17:27:49.709Z,22.50
2018-12-15T17:30:22.912Z,23.10
2018-12-15T17:32:56.239Z,22.60
2018-12-15T17:35:42.044Z,23.00
2018-12-15T17:38:14.405Z,22.30
2018-12-15T17:40:47.068Z,22.00
2018-12-15T17:43:19.553Z,21.80
2018-12-15T17:45:53.264Z,22.10
2018-12-15T17:48:26.229Z,21.80
2018-12-15T17:54:37.158Z,22.20
2018-12-15T17:57:09.930Z,21.80
2018-12-15T17:59:42.524Z,21.60
2018-12-15T18:02:15.696Z,20.50
2018-12-15T18:04:49.747Z,20.90
2018-12-15T18:07:22.611Z,21.00
2018-12-15T18:09:58.484Z,21.20
2018-12-15T18:12:34.480Z,21.20
2018-12-15T18:15:10.139Z,21.20
2018-12-15T18:17:44.797Z,22.00
2018-12-15T18:20:18.404Z,21.90
2018-12-15T18:22:51.608Z,21.60
2018-12-15T18:25:25.291Z,21.60
2018-12-15T18:27:58.596Z,21.50
2018-12-15T18:30:31.671Z,21.50
2018-12-15T18:33:07.686Z,21.90
2018-12-15T18:35:41.603Z,22.80
2018-12-15T18:38:15.173Z,21.50
2018-12-15T18:40:48.346Z,20.90
2018-12-15T18:43:22.307Z,21.00
2018-12-15T18:45:55.752Z,21.10
2018-12-15T18:48:28.581Z,21.40
2018-12-15T18:51:16.372Z,21.60
2018-12-15T18:53:47.274Z,22.00
2018-12-15T18:56:20.434Z,22.00
2018-12-15T18:58:53.412Z,21.70
2018-12-15T19:01:29.061Z,22.00
2018-12-15T19:04:02.274Z,22.20
2018-12-15T19:06:35.678Z,22.20
2018-12-15T19:09:10.522Z,22.10
2018-12-15T19:11:46.999Z,22.20
2018-12-15T19:14:20.113Z,22.00
2018-12-15T19:16:53.005Z,22.20
2018-12-15T19:19:25.690Z,21.70
2018-12-15T19:21:59.923Z,22.00
2018-12-15T19:24:33.740Z,22.00
2018-12-15T19:30:28.506Z,21.00
2018-12-15T19:36:35.351Z,21.30
2018-12-15T19:39:10.642Z,21.30
2018-12-15T19:41:44.439Z,21.40
2018-12-15T19:44:18.003Z,21.40
2018-12-15T19:46:52.599Z,21.60
2018-12-15T19:49:25.988Z,21.40
2018-12-15T19:51:59.412Z,21.10
2018-12-15T19:54:32.587Z,21.10
2018-12-15T19:57:05.493Z,21.60
2018-12-15T19:59:40.150Z,22.10
2018-12-15T20:02:17.124Z,21.80
2018-12-15T20:04:50.485Z,21.50
2018-12-15T20:07:26.549Z,21.70
2018-12-15T20:10:03.826Z,21.50
2018-12-15T20:15:57.731Z,21.70
2018-12-15T20:18:30.190Z,20.90
2018-12-15T20:21:03.107Z,20.90
2018-12-15T20:23:35.352Z,20.80
2018-12-15T20:26:07.694Z,20.90
2018-12-15T20:28:39.948Z,20.90
2018-12-15T20:31:12.458Z,21.00
2018-12-15T20:33:45.731Z,20.70
2018-12-15T20:36:18.967Z,21.00
2018-12-15T20:38:51.129Z,20.90
2018-12-15T20:44:55.970Z,21.00
2018-12-15T20:47:30.500Z,20.90
2018-12-15T20:50:04.427Z,20.90
2018-12-15T20:53:09.578Z,20.90
2018-12-15T20:55:42.778Z,21.60
2018-12-15T20:58:15.653Z,21.50
2018-12-15T21:00:49.124Z,21.70
2018-12-15T21:06:43.543Z,21.30
2018-12-15T21:09:15.932Z,21.60
2018-12-15T21:11:48.450Z,21.50
2018-12-15T21:14:20.781Z,21.30
2018-12-15T21:16:53.420Z,20.90
2018-12-15T21:19:25.767Z,21.10
2018-12-15T21:21:58.604Z,21.20
2018-12-15T21:24:30.896Z,21.10
2018-12-15T21:27:03.413Z,21.10
2018-12-15T21:29:36.492Z,21.50
2018-12-15T21:32:09.326Z,21.30
2018-12-15T21:34:41.654Z,21.10
2018-12-15T21:37:13.993Z,20.50
2018-12-15T21:39:46.374Z,19.90
2018-12-15T21:42:33.291Z,20.00
2018-12-15T21:45:05.665Z,19.60
2018-12-15T21:47:38.693Z,20.00
2018-12-15T21:50:11.129Z,19.90
2018-12-15T21:52:44.314Z,19.90
2018-12-15T21:55:16.834Z,19.70
2018-12-15T21:57:49.218Z,19.70
2018-12-15T22:00:21.596Z,19.60
2018-12-15T22:02:53.946Z,19.70
2018-12-15T22:05:26.266Z,19.60
2018-12-15T22:07:58.617Z,19.30
2018-12-15T22:10:31.175Z,19.60
2018-12-15T22:13:04.368Z,19.70
2018-12-15T22:15:36.934Z,19.50
2018-12-15T22:18:11.137Z,19.20
2018-12-15T22:20:44.149Z,19.20
2018-12-15T22:23:17.434Z,19.10
2018-12-15T22:25:49.758Z,19.00
2018-12-15T22:28:22.092Z,19.20
2018-12-15T22:30:54.951Z,19.00
2018-12-15T22:33:28.340Z,18.80
2018-12-15T22:36:00.707Z,18.80
2018-12-15T22:41:55.222Z,18.60
2018-12-15T22:44:27.628Z,18.50
2018-12-15T22:47:00.536Z,18.40
2018-12-15T22:49:32.969Z,18.20
2018-12-15T22:52:09.735Z,17.90
2018-12-15T22:54:41.133Z,17.70
2018-12-15T22:57:14.376Z,17.50
2018-12-15T22:59:46.861Z,17.40
2018-12-15T23:02:20.306Z,17.40
2018-12-15T23:04:53.950Z,17.20
2018-12-15T23:07:27.207Z,17.00
2018-12-15T23:10:00.346Z,16.90
2018-12-15T23:12:34.660Z,16.80
2018-12-15T23:15:07.665Z,16.70
2018-12-15T23:21:01.884Z,16.50
2018-12-15T23:27:01.424Z,16.40
2018-12-15T23:29:34.780Z,16.30
2018-12-15T23:32:12.766Z,16.10
2018-12-15T23:34:46.259Z,16.00
2018-12-15T23:37:20.226Z,15.90
2018-12-15T23:39:53.249Z,15.80
2018-12-15T23:42:27.867Z,15.80
2018-12-15T23:45:00.980Z,15.80
2018-12-15T23:47:34.964Z,15.60
2018-12-15T23:50:08.190Z,15.60
2018-12-15T23:52:42.171Z,15.40
2018-12-15T23:55:16.242Z,15.30
2018-12-15T23:57:51.803Z,15.20
